createdAt,value
2022-10-12T00:01:05.887Z,4.30
2022-10-12T00:03:33.865Z,4.20
2022-10-12T00:06:19.378Z,4.20
2022-10-12T00:08:47.122Z,4.10
2022-10-12T00:11:19.818Z,4.10
2022-10-12T00:13:46.597Z,4.20
2022-10-12T00:16:14.867Z,4.20
2022-10-12T00:18:41.643Z,4.20
2022-10-12T00:21:14.402Z,4.10
2022-10-12T00:23:42.662Z,4.10
2022-10-12T00:26:17.220Z,4.10
2022-10-12T00:28:44.251Z,4.10
2022-10-12T00:31:14.901Z,4.10
2022-10-12T00:33:42.268Z,4.10
2022-10-12T00:36:14.211Z,4.10
2022-10-12T00:38:40.908Z,4.00
2022-10-12T00:41:07.692Z,4.00
2022-10-12T00:43:39.021Z,4.00
2022-10-12T00:46:39.044Z,4.00
2022-10-12T00:49:23.086Z,4.00
2022-10-12T00:51:56.497Z,3.90
2022-10-12T00:54:29.825Z,3.90
2022-10-12T00:56:58.002Z,3.90
2022-10-12T00:59:32.460Z,3.90
2022-10-12T01:01:59.342Z,3.90
2022-10-12T01:04:26.412Z,3.90
2022-10-12T01:06:53.289Z,3.80
2022-10-12T01:09:21.378Z,3.80
2022-10-12T01:11:48.661Z,3.80
2022-10-12T01:14:16.449Z,3.90
2022-10-12T01:16:58.325Z,3.90
2022-10-12T01:19:27.902Z,3.90
2022-10-12T01:22:15.626Z,3.80
2022-10-12T01:24:48.239Z,3.80
2022-10-12T01:27:24.274Z,3.80
2022-10-12T01:30:17.632Z,3.80
2022-10-12T01:33:14.190Z,3.70
2022-10-12T01:36:25.134Z,3.70
2022-10-12T01:39:07.493Z,3.70
2022-10-12T01:41:44.808Z,3.70
2022-10-12T01:44:11.475Z,3.60
2022-10-12T01:46:42.761Z,3.60
2022-10-12T01:49:10.277Z,3.60
2022-10-12T01:52:08.622Z,3.60
2022-10-12T01:55:13.548Z,3.60
2022-10-12T01:57:55.188Z,3.60
2022-10-12T02:00:21.906Z,3.50
2022-10-12T02:03:16.124Z,3.50
2022-10-12T02:05:58.033Z,3.50
2022-10-12T02:08:37.789Z,3.50
2022-10-12T02:11:13.637Z,3.50
2022-10-12T02:13:47.219Z,3.50
2022-10-12T02:16:25.647Z,3.50
2022-10-12T02:18:55.924Z,3.40
2022-10-12T02:21:25.616Z,3.40
2022-10-12T02:23:54.094Z,3.40
2022-10-12T02:26:21.958Z,3.40
2022-10-12T02:28:50.585Z,3.40
2022-10-12T02:31:37.701Z,3.40
2022-10-12T02:34:15.420Z,3.30
2022-10-12T02:36:51.181Z,3.30
2022-10-12T02:39:29.326Z,3.30
2022-10-12T02:42:01.566Z,3.30
2022-10-12T02:44:32.592Z,3.20
2022-10-12T02:47:00.171Z,3.30
2022-10-12T02:49:29.001Z,3.30
2022-10-12T02:51:56.653Z,3.30
2022-10-12T02:54:23.728Z,3.20
2022-10-12T02:56:50.458Z,3.20
2022-10-12T02:59:18.413Z,3.20
2022-10-12T03:01:45.109Z,3.20
2022-10-12T03:04:11.896Z,3.10
2022-10-12T03:06:38.570Z,3.10
2022-10-12T03:09:05.381Z,3.10
2022-10-12T03:11:32.377Z,3.10
2022-10-12T03:13:59.114Z,3.10
2022-10-12T03:16:26.012Z,3.10
2022-10-12T03:18:52.974Z,3.10
2022-10-12T03:21:19.597Z,3.10
2022-10-12T03:23:46.272Z,3.00
2022-10-12T03:26:12.907Z,3.00
2022-10-12T03:28:39.615Z,3.00
2022-10-12T03:31:06.495Z,3.00
2022-10-12T03:33:33.110Z,3.00
2022-10-12T03:35:59.799Z,3.00
2022-10-12T03:38:26.469Z,2.90
2022-10-12T03:40:53.139Z,2.90
2022-10-12T03:43:19.738Z,3.00
2022-10-12T03:45:46.563Z,2.90
2022-10-12T03:48:13.186Z,3.00
2022-10-12T03:50:40.252Z,2.90
2022-10-12T03:53:07.599Z,2.90
2022-10-12T03:55:34.409Z,2.90
2022-10-12T03:58:01.054Z,2.80
2022-10-12T04:00:28.486Z,2.80
2022-10-12T04:02:55.657Z,2.80
2022-10-12T04:05:22.594Z,2.80
2022-10-12T04:07:49.418Z,2.80
2022-10-12T04:10:16.136Z,2.80
2022-10-12T04:12:42.749Z,2.80
2022-10-12T04:15:10.105Z,2.80
2022-10-12T04:17:36.949Z,2.80
2022-10-12T04:20:04.676Z,2.70
2022-10-12T04:22:31.316Z,2.80
2022-10-12T04:24:57.994Z,2.70
2022-10-12T04:27:24.692Z,2.80
2022-10-12T04:29:51.486Z,2.70
2022-10-12T04:32:18.064Z,2.70
2022-10-12T04:34:44.683Z,2.70
2022-10-12T04:37:11.294Z,2.70
2022-10-12T04:39:37.908Z,2.70
2022-10-12T04:42:06.757Z,2.60
2022-10-12T04:44:33.892Z,2.60
2022-10-12T04:47:02.645Z,2.60
2022-10-12T04:49:29.246Z,2.60
2022-10-12T04:51:55.864Z,2.60
2022-10-12T04:54:22.481Z,2.60
2022-10-12T04:56:49.093Z,2.60
2022-10-12T04:59:15.804Z,2.50
2022-10-12T05:01:43.128Z,2.60
2022-10-12T05:04:09.884Z,2.60
2022-10-12T05:06:36.627Z,2.60
2022-10-12T05:09:03.453Z,2.60
2022-10-12T05:11:30.145Z,2.50
2022-10-12T05:13:56.831Z,2.50
2022-10-12T05:16:23.550Z,2.50
2022-10-12T05:18:50.166Z,2.50
2022-10-12T05:21:16.814Z,2.50
2022-10-12T05:23:43.404Z,2.50
2022-10-12T05:26:10.048Z,2.50
2022-10-12T05:28:40.783Z,2.50
2022-10-12T05:31:07.963Z,2.50
2022-10-12T05:33:34.625Z,2.50
2022-10-12T05:36:01.422Z,2.50
2022-10-12T05:38:28.221Z,2.50
2022-10-12T05:41:00.091Z,2.50
2022-10-12T05:43:27.441Z,2.50
2022-10-12T05:45:54.164Z,2.50
2022-10-12T05:48:20.766Z,2.50
2022-10-12T05:50:47.352Z,2.50
2022-10-12T05:53:14.005Z,2.50
2022-10-12T05:55:40.616Z,2.50
2022-10-12T05:58:07.220Z,2.50
2022-10-12T06:00:33.895Z,2.60
2022-10-12T06:03:00.592Z,2.60
2022-10-12T06:05:27.200Z,2.60
2022-10-12T06:07:53.804Z,2.60
2022-10-12T06:10:20.540Z,2.70
2022-10-12T06:12:47.336Z,2.70
2022-10-12T06:15:14.039Z,2.70
2022-10-12T06:17:40.706Z,2.80
2022-10-12T06:20:07.804Z,2.80
2022-10-12T06:22:34.389Z,2.80
2022-10-12T06:25:01.015Z,2.80
2022-10-12T06:27:27.686Z,2.90
2022-10-12T06:29:54.304Z,2.90
2022-10-12T06:32:21.456Z,3.00
2022-10-12T06:34:48.035Z,3.00
2022-10-12T06:37:37.027Z,3.00
2022-10-12T06:40:01.338Z,3.10
2022-10-12T06:42:27.962Z,3.20
2022-10-12T06:44:54.529Z,3.20
2022-10-12T06:47:21.212Z,3.30
2022-10-12T06:49:47.793Z,3.40
2022-10-12T06:52:14.599Z,3.50
2022-10-12T06:54:44.274Z,3.50
2022-10-12T06:57:10.950Z,3.60
2022-10-12T06:59:37.538Z,3.60
2022-10-12T07:02:04.209Z,3.70
2022-10-12T07:04:30.921Z,3.80
2022-10-12T07:06:57.624Z,3.80
2022-10-12T07:09:24.339Z,3.90
2022-10-12T07:11:50.977Z,3.90
2022-10-12T07:14:17.666Z,4.00
2022-10-12T07:16:44.286Z,4.10
2022-10-12T07:19:11.064Z,4.20
2022-10-12T07:21:37.682Z,4.20
2022-10-12T07:24:05.006Z,4.40
2022-10-12T07:26:31.828Z,4.40
2022-10-12T07:28:58.569Z,4.50
2022-10-12T07:31:25.266Z,4.60
2022-10-12T07:33:51.854Z,4.80
2022-10-12T07:36:21.681Z,4.90
2022-10-12T07:38:49.279Z,5.00
2022-10-12T07:41:16.368Z,5.10
2022-10-12T07:43:43.362Z,5.20
2022-10-12T07:46:10.604Z,5.40
2022-10-12T07:48:37.924Z,5.50
2022-10-12T07:51:05.849Z,5.70
2022-10-12T07:53:34.811Z,5.80
2022-10-12T07:56:03.300Z,6.00
2022-10-12T07:58:29.919Z,6.10
2022-10-12T08:00:56.689Z,6.20
2022-10-12T08:03:23.502Z,6.40
2022-10-12T08:05:50.110Z,6.60
2022-10-12T08:08:16.711Z,6.70
2022-10-12T08:10:43.396Z,6.80
2022-10-12T08:13:09.993Z,7.00
2022-10-12T08:15:36.598Z,7.10
2022-10-12T08:18:03.228Z,7.30
2022-10-12T08:20:29.847Z,7.40
2022-10-12T08:22:56.432Z,7.50
2022-10-12T08:25:23.197Z,7.70
2022-10-12T08:27:49.999Z,7.80
2022-10-12T08:30:16.952Z,7.90
2022-10-12T08:32:43.564Z,8.10
2022-10-12T08:35:10.179Z,8.20
2022-10-12T08:37:37.006Z,8.30
2022-10-12T08:40:04.180Z,8.40
2022-10-12T08:42:44.518Z,8.50
2022-10-12T08:45:46.013Z,8.60
2022-10-12T08:48:20.808Z,8.80
2022-10-12T08:50:54.185Z,9.00
2022-10-12T08:53:35.747Z,9.00
2022-10-12T08:56:02.388Z,9.20
2022-10-12T08:58:36.610Z,9.20
2022-10-12T09:01:39.123Z,9.40
2022-10-12T09:04:38.011Z,9.50
2022-10-12T09:07:12.557Z,9.60
2022-10-12T09:09:43.120Z,9.80
2022-10-12T09:12:21.044Z,10.00
2022-10-12T09:14:50.674Z,10.10
2022-10-12T09:17:38.379Z,10.20
2022-10-12T09:20:21.419Z,10.30
2022-10-12T09:23:02.035Z,10.40
2022-10-12T09:25:29.259Z,10.60
2022-10-12T09:28:17.201Z,10.70
2022-10-12T09:30:59.198Z,10.80
2022-10-12T09:33:37.859Z,10.90
2022-10-12T09:36:04.776Z,11.10
2022-10-12T09:38:31.551Z,11.10
2022-10-12T09:40:58.149Z,11.30
2022-10-12T09:43:25.015Z,11.40
2022-10-12T09:45:52.202Z,11.50
2022-10-12T09:48:24.635Z,11.60
2022-10-12T09:50:57.952Z,11.70
2022-10-12T09:53:32.363Z,11.80
2022-10-12T09:56:04.045Z,11.90
2022-10-12T09:58:40.038Z,12.10
2022-10-12T10:01:27.793Z,12.20
2022-10-12T10:04:14.021Z,12.30
2022-10-12T10:06:43.756Z,12.40
2022-10-12T10:09:29.389Z,12.50
2022-10-12T10:12:13.714Z,12.50
2022-10-12T10:14:43.787Z,12.80
2022-10-12T10:17:16.032Z,12.90
2022-10-12T10:19:49.530Z,13.00
2022-10-12T10:22:16.643Z,13.00
2022-10-12T10:24:43.649Z,13.20
2022-10-12T10:27:37.011Z,13.20
2022-10-12T10:30:29.992Z,13.30
2022-10-12T10:33:12.797Z,13.40
2022-10-12T10:35:39.500Z,13.50
2022-10-12T10:38:07.557Z,13.70
2022-10-12T10:40:34.480Z,13.80
2022-10-12T10:43:07.088Z,13.90
2022-10-12T10:48:17.945Z,14.30
2022-10-12T10:50:54.004Z,14.50
2022-10-12T10:53:26.008Z,14.70
2022-10-12T10:55:58.340Z,14.80
2022-10-12T10:58:34.086Z,14.90
2022-10-12T11:01:13.147Z,15.00
2022-10-12T11:03:48.377Z,15.20
2022-10-12T11:06:30.997Z,15.40
2022-10-12T11:09:06.213Z,15.60
2022-10-12T11:11:36.189Z,15.80
2022-10-12T11:14:16.940Z,16.00
2022-10-12T11:17:14.318Z,16.20
2022-10-12T11:19:45.220Z,16.30
2022-10-12T11:22:22.092Z,16.40
2022-10-12T11:25:02.823Z,16.60
2022-10-12T11:27:37.235Z,16.70
2022-10-12T11:30:13.981Z,16.90
2022-10-12T11:32:51.478Z,17.10
2022-10-12T11:35:31.703Z,17.40
2022-10-12T11:38:00.536Z,17.60
2022-10-12T11:40:57.164Z,17.70
2022-10-12T11:43:24.051Z,17.80
2022-10-12T11:45:56.603Z,18.00
2022-10-12T11:48:29.416Z,18.20
2022-10-12T11:51:03.018Z,18.30
2022-10-12T11:54:11.700Z,18.20
2022-10-12T11:56:48.903Z,18.30
2022-10-12T11:59:42.004Z,18.50
2022-10-12T12:02:22.224Z,18.50
2022-10-12T12:04:49.385Z,18.50
2022-10-12T12:07:43.671Z,18.50
2022-10-12T12:10:25.691Z,18.70
2022-10-12T12:13:20.435Z,18.80
2022-10-12T12:15:52.784Z,18.70
2022-10-12T12:18:34.784Z,18.80
2022-10-12T12:21:05.155Z,19.00
2022-10-12T12:23:50.864Z,19.00
2022-10-12T12:26:19.291Z,19.10
2022-10-12T12:28:47.799Z,19.30
2022-10-12T12:31:24.764Z,19.40
2022-10-12T12:34:04.034Z,19.40
2022-10-12T12:36:40.409Z,19.40
2022-10-12T12:39:20.945Z,19.50
2022-10-12T12:42:01.549Z,19.40
2022-10-12T12:47:46.807Z,19.50
2022-10-12T12:50:36.645Z,19.60
2022-10-12T12:53:08.438Z,19.60
2022-10-12T12:55:40.815Z,19.60
2022-10-12T12:58:48.960Z,19.40
2022-10-12T13:01:43.970Z,19.60
2022-10-12T13:04:49.335Z,19.70
2022-10-12T13:07:33.559Z,19.90
2022-10-12T13:10:24.466Z,19.90
2022-10-12T13:13:16.333Z,19.70
2022-10-12T13:16:32.595Z,19.50
2022-10-12T13:19:09.910Z,19.60
2022-10-12T13:21:42.245Z,19.60
2022-10-12T13:24:15.095Z,19.60
2022-10-12T13:26:46.088Z,19.70
2022-10-12T13:29:39.640Z,19.70
2022-10-12T13:32:19.308Z,19.90
2022-10-12T13:34:47.423Z,19.80
2022-10-12T13:37:15.956Z,20.00
2022-10-12T13:39:47.051Z,19.90
2022-10-12T13:42:18.005Z,19.90
2022-10-12T13:44:47.475Z,19.70
2022-10-12T13:47:43.194Z,19.30
2022-10-12T13:50:20.253Z,19.10
2022-10-12T13:52:54.337Z,19.10
2022-10-12T13:55:27.301Z,18.90
2022-10-12T13:57:53.938Z,18.90
2022-10-12T14:00:25.286Z,19.20
2022-10-12T14:02:57.790Z,19.60
2022-10-12T14:05:26.242Z,19.70
2022-10-12T14:07:56.124Z,20.00
2022-10-12T14:10:32.754Z,20.30
2022-10-12T14:15:53.888Z,20.10
2022-10-12T14:18:40.800Z,20.10
2022-10-12T14:21:26.826Z,20.10
2022-10-12T14:23:59.177Z,20.20
2022-10-12T14:26:51.861Z,20.30
2022-10-12T14:29:40.972Z,20.40
2022-10-12T14:32:10.610Z,20.20
2022-10-12T14:34:39.701Z,20.10
2022-10-12T14:37:09.219Z,20.00
2022-10-12T14:39:36.852Z,20.00
2022-10-12T14:42:18.025Z,19.80
2022-10-12T14:44:44.894Z,20.00
2022-10-12T14:47:26.170Z,19.90
2022-10-12T14:49:57.046Z,20.00
2022-10-12T14:52:28.701Z,20.00
2022-10-12T14:54:58.220Z,20.00
2022-10-12T14:57:28.654Z,19.70
2022-10-12T14:59:55.898Z,19.70
2022-10-12T15:02:28.540Z,19.60
2022-10-12T15:04:56.297Z,19.50
2022-10-12T15:07:41.652Z,19.50
2022-10-12T15:10:09.051Z,19.50
2022-10-12T15:12:36.157Z,19.40
2022-10-12T15:15:29.940Z,19.20
2022-10-12T15:17:58.113Z,19.10
2022-10-12T15:20:26.493Z,19.00
2022-10-12T15:22:53.207Z,18.90
2022-10-12T15:25:28.209Z,18.80
2022-10-12T15:27:54.964Z,18.60
2022-10-12T15:30:21.632Z,18.40
2022-10-12T15:32:48.365Z,18.20
2022-10-12T15:35:25.372Z,18.10
2022-10-12T15:37:52.177Z,17.90
2022-10-12T15:40:20.591Z,17.70
2022-10-12T15:42:47.456Z,17.60
2022-10-12T15:45:26.283Z,17.30
2022-10-12T15:48:18.347Z,17.20
2022-10-12T15:50:47.546Z,17.00
2022-10-12T15:53:24.779Z,16.80
2022-10-12T15:55:55.622Z,16.50
2022-10-12T15:58:22.416Z,16.20
2022-10-12T16:00:50.040Z,15.90
2022-10-12T16:03:25.243Z,15.60
2022-10-12T16:05:52.721Z,15.20
2022-10-12T16:08:19.331Z,14.90
2022-10-12T16:10:47.720Z,14.60
2022-10-12T16:13:15.234Z,14.30
2022-10-12T16:15:42.396Z,14.20
2022-10-12T16:18:10.097Z,13.90
2022-10-12T16:20:41.102Z,13.60
2022-10-12T16:23:13.297Z,13.40
2022-10-12T16:25:40.035Z,13.20
2022-10-12T16:28:06.687Z,12.90
2022-10-12T16:30:33.573Z,12.70
2022-10-12T16:33:00.146Z,12.50
2022-10-12T16:35:26.837Z,12.40
2022-10-12T16:37:53.453Z,12.20
2022-10-12T16:40:20.423Z,12.00
2022-10-12T16:42:54.204Z,11.80
2022-10-12T16:45:21.943Z,11.60
2022-10-12T16:47:51.559Z,11.50
2022-10-12T16:50:20.006Z,11.30
2022-10-12T16:52:46.724Z,11.20
2022-10-12T16:55:14.148Z,11.10
2022-10-12T16:57:41.377Z,11.00
2022-10-12T17:00:10.580Z,10.90
2022-10-12T17:02:37.719Z,10.80
2022-10-12T17:05:05.513Z,10.60
2022-10-12T17:07:32.528Z,10.50
2022-10-12T17:09:59.208Z,10.40
2022-10-12T17:12:26.426Z,10.30
2022-10-12T17:14:53.157Z,10.20
2022-10-12T17:17:20.522Z,10.10
2022-10-12T17:19:47.177Z,10.00
2022-10-12T17:22:15.033Z,9.90
2022-10-12T17:24:43.000Z,9.80
2022-10-12T17:27:12.347Z,9.70
2022-10-12T17:29:40.345Z,9.60
2022-10-12T17:32:08.058Z,9.60
2022-10-12T17:34:38.173Z,9.50
2022-10-12T17:37:05.501Z,9.40
2022-10-12T17:39:36.575Z,9.30
2022-10-12T17:42:05.250Z,9.20
2022-10-12T17:44:32.088Z,9.20
2022-10-12T17:46:58.870Z,9.10
2022-10-12T17:49:26.959Z,9.10
2022-10-12T17:51:53.837Z,9.00
2022-10-12T17:54:21.943Z,8.90
2022-10-12T17:56:48.624Z,8.90
2022-10-12T17:59:17.626Z,8.80
2022-10-12T18:01:44.870Z,8.70
2022-10-12T18:04:12.585Z,8.60
2022-10-12T18:06:39.950Z,8.60
2022-10-12T18:09:08.017Z,8.50
2022-10-12T18:11:35.547Z,8.40
2022-10-12T18:14:03.975Z,8.40
2022-10-12T18:16:33.237Z,8.30
2022-10-12T18:19:01.933Z,8.30
2022-10-12T18:21:30.574Z,8.20
2022-10-12T18:23:57.534Z,8.20
2022-10-12T18:26:24.975Z,8.10
2022-10-12T18:28:55.516Z,8.10
2022-10-12T18:31:24.615Z,8.00
2022-10-12T18:33:52.786Z,8.00
2022-10-12T18:36:20.148Z,7.90
2022-10-12T18:38:47.399Z,7.90
2022-10-12T18:41:16.798Z,7.80
2022-10-12T18:43:43.781Z,7.80
2022-10-12T18:46:13.086Z,7.80
2022-10-12T18:48:40.500Z,7.70
2022-10-12T18:51:21.908Z,7.70
2022-10-12T18:53:48.655Z,7.70
2022-10-12T18:56:16.012Z,7.60
2022-10-12T18:58:42.775Z,7.60
2022-10-12T19:01:16.130Z,7.60
2022-10-12T19:03:43.098Z,7.50
2022-10-12T19:06:16.494Z,7.50
2022-10-12T19:08:43.637Z,7.40
2022-10-12T19:11:12.147Z,7.40
2022-10-12T19:13:39.387Z,7.40
2022-10-12T19:16:10.849Z,7.40
2022-10-12T19:18:38.502Z,7.30
2022-10-12T19:21:07.768Z,7.30
2022-10-12T19:23:34.685Z,7.20
2022-10-12T19:26:06.220Z,7.20
2022-10-12T19:28:33.213Z,7.20
2022-10-12T19:31:00.747Z,7.20
2022-10-12T19:33:29.030Z,7.10
2022-10-12T19:35:56.133Z,7.10
2022-10-12T19:38:22.777Z,7.10
2022-10-12T19:40:51.029Z,7.10
2022-10-12T19:43:17.822Z,7.20
2022-10-12T19:45:44.411Z,7.20
2022-10-12T19:48:11.774Z,7.30
2022-10-12T19:50:38.759Z,7.30
2022-10-12T19:53:05.706Z,7.40
2022-10-12T19:55:38.985Z,7.40
2022-10-12T19:58:07.257Z,7.40
2022-10-12T20:00:35.638Z,7.40
2022-10-12T20:03:03.272Z,7.40
2022-10-12T20:05:29.927Z,7.40
2022-10-12T20:07:56.524Z,7.40
2022-10-12T20:10:23.187Z,7.40
2022-10-12T20:12:49.894Z,7.40
2022-10-12T20:15:16.619Z,7.40
2022-10-12T20:17:43.252Z,7.40
2022-10-12T20:20:10.336Z,7.40
2022-10-12T20:22:36.985Z,7.40
2022-10-12T20:25:09.347Z,7.30
2022-10-12T20:27:36.659Z,7.20
2022-10-12T20:30:04.373Z,7.20
2022-10-12T20:32:31.052Z,7.10
2022-10-12T20:34:57.738Z,7.00
2022-10-12T20:37:24.425Z,7.00
2022-10-12T20:39:52.125Z,6.90
2022-10-12T20:42:21.954Z,6.80
2022-10-12T20:44:49.404Z,6.70
2022-10-12T20:47:16.566Z,6.70
2022-10-12T20:49:43.788Z,6.70
2022-10-12T20:52:10.806Z,6.60
2022-10-12T20:54:37.834Z,6.60
2022-10-12T20:57:04.917Z,6.60
2022-10-12T20:59:34.502Z,6.60
2022-10-12T21:02:01.095Z,6.60
2022-10-12T21:04:31.066Z,6.50
2022-10-12T21:06:59.301Z,6.50
2022-10-12T21:09:26.073Z,6.40
2022-10-12T21:11:54.007Z,6.40
2022-10-12T21:14:21.300Z,6.30
2022-10-12T21:16:48.003Z,6.30
2022-10-12T21:19:16.307Z,6.30
2022-10-12T21:21:43.526Z,6.20
2022-10-12T21:24:10.751Z,6.20
2022-10-12T21:26:37.441Z,6.10
2022-10-12T21:29:04.836Z,6.10
2022-10-12T21:31:32.950Z,6.10
2022-10-12T21:34:01.858Z,6.00
2022-10-12T21:36:29.951Z,6.00
2022-10-12T21:38:56.800Z,5.90
2022-10-12T21:41:26.162Z,5.90
2022-10-12T21:43:53.564Z,5.90
2022-10-12T21:46:22.718Z,5.80
2022-10-12T21:48:50.213Z,5.80
2022-10-12T21:51:17.984Z,5.80
2022-10-12T21:53:44.708Z,5.80
2022-10-12T21:56:20.200Z,5.70
2022-10-12T21:58:47.762Z,5.70
2022-10-12T22:01:17.262Z,5.70
2022-10-12T22:03:44.848Z,5.60
2022-10-12T22:06:13.772Z,5.60
2022-10-12T22:08:40.598Z,5.60
2022-10-12T22:11:09.693Z,5.50
2022-10-12T22:13:37.121Z,5.50
2022-10-12T22:16:05.830Z,5.50
2022-10-12T22:18:32.733Z,5.50
2022-10-12T22:21:03.991Z,5.40
2022-10-12T22:23:30.998Z,5.40
2022-10-12T22:26:02.393Z,5.40
2022-10-12T22:28:30.022Z,5.40
2022-10-12T22:30:56.869Z,5.40
2022-10-12T22:33:24.046Z,5.30
2022-10-12T22:35:58.484Z,5.40
2022-10-12T22:38:26.432Z,5.40
2022-10-12T22:41:01.936Z,5.30
2022-10-12T22:43:30.129Z,5.30
2022-10-12T22:45:57.267Z,5.20
2022-10-12T22:48:24.706Z,5.20
2022-10-12T22:50:52.065Z,5.20
2022-10-12T22:53:20.502Z,5.20
2022-10-12T22:55:48.386Z,5.20
2022-10-12T22:58:15.534Z,5.20
2022-10-12T23:00:42.295Z,5.20
2022-10-12T23:03:09.049Z,5.20
2022-10-12T23:05:35.707Z,5.10
2022-10-12T23:08:02.327Z,5.10
2022-10-12T23:10:29.028Z,5.10
2022-10-12T23:12:55.652Z,5.10
2022-10-12T23:15:22.362Z,5.10
2022-10-12T23:17:48.952Z,5.10
2022-10-12T23:20:15.869Z,5.10
2022-10-12T23:22:42.490Z,5.10
2022-10-12T23:25:09.199Z,5.10
2022-10-12T23:27:35.787Z,5.10
2022-10-12T23:30:02.452Z,5.10
2022-10-12T23:32:30.413Z,5.10
2022-10-12T23:34:57.096Z,5.00
2022-10-12T23:37:23.746Z,5.00
2022-10-12T23:39:50.337Z,5.00
2022-10-12T23:42:17.363Z,5.00
2022-10-12T23:44:44.148Z,5.00
2022-10-12T23:47:10.761Z,5.00
2022-10-12T23:49:37.481Z,5.00
2022-10-12T23:52:04.211Z,5.00
2022-10-12T23:54:30.805Z,5.00
2022-10-12T23:56:57.406Z,5.00
2022-10-12T23:59:23.970Z,5.00
